createdAt,value
2022-11-21T00:01:24.807Z,56.72
2022-11-21T00:03:52.196Z,56.80
2022-11-21T00:06:20.196Z,54.83
2022-11-21T00:08:47.805Z,58.58
2022-11-21T00:11:15.241Z,55.65
2022-11-21T00:13:42.754Z,53.95
2022-11-21T00:16:12.940Z,54.97
2022-11-21T00:18:40.432Z,55.10
2022-11-21T00:21:10.439Z,53.75
2022-11-21T00:26:06.532Z,58.80
2022-11-21T00:28:34.718Z,56.13
2022-11-21T00:31:02.122Z,55.70
2022-11-21T00:33:29.300Z,54.35
2022-11-21T00:35:56.448Z,57.30
2022-11-21T00:38:24.644Z,54.58
2022-11-21T00:40:51.883Z,55.72
2022-11-21T00:43:19.000Z,56.35
2022-11-21T00:45:46.150Z,55.42
2022-11-21T00:48:13.240Z,54.10
2022-11-21T00:50:40.360Z,54.55
2022-11-21T00:53:07.434Z,51.38
2022-11-21T00:55:34.599Z,51.88
2022-11-21T00:58:01.720Z,48.83
2022-11-21T01:00:28.955Z,53.83
2022-11-21T01:02:56.527Z,55.67
2022-11-21T01:05:25.015Z,53.08
2022-11-21T01:07:52.089Z,54.00
2022-11-21T01:10:19.359Z,54.03
2022-11-21T01:12:46.478Z,53.00
2022-11-21T01:15:13.758Z,53.85
2022-11-21T01:17:41.004Z,53.88
2022-11-21T01:20:08.773Z,52.85
2022-11-21T01:22:36.081Z,49.70
2022-11-21T01:25:03.724Z,49.58
2022-11-21T01:27:30.924Z,54.20
2022-11-21T01:29:58.083Z,54.10
2022-11-21T01:32:25.233Z,53.92
2022-11-21T01:34:52.413Z,60.15
2022-11-21T01:37:19.519Z,58.25
2022-11-21T01:39:46.640Z,59.53
2022-11-21T01:42:14.254Z,65.50
2022-11-21T01:44:52.233Z,59.72
2022-11-21T01:47:19.923Z,63.67
2022-11-21T01:49:47.883Z,58.80
2022-11-21T01:52:26.309Z,62.53
2022-11-21T01:54:58.331Z,59.47
2022-11-21T01:57:25.399Z,56.30
2022-11-21T02:00:23.631Z,60.13
2022-11-21T02:02:55.542Z,60.97
2022-11-21T02:05:26.698Z,63.53
2022-11-21T02:07:58.315Z,59.65
2022-11-21T02:10:25.864Z,68.80
2022-11-21T02:12:55.632Z,67.25
2022-11-21T02:15:25.648Z,66.97
2022-11-21T02:20:23.403Z,62.38
2022-11-21T02:23:12.438Z,60.60
2022-11-21T02:25:42.494Z,66.13
2022-11-21T02:30:41.409Z,62.78
2022-11-21T02:33:09.838Z,63.33
2022-11-21T02:35:36.967Z,64.00
2022-11-21T02:38:16.102Z,59.85
2022-11-21T02:40:51.877Z,59.23
2022-11-21T02:43:48.153Z,64.72
2022-11-21T02:46:15.273Z,59.08
2022-11-21T02:48:42.522Z,58.92
2022-11-21T02:51:09.639Z,63.08
2022-11-21T02:53:36.874Z,65.65
2022-11-21T02:56:04.082Z,58.17
2022-11-21T02:58:31.575Z,60.13
2022-11-21T03:00:58.799Z,60.97
2022-11-21T03:03:26.052Z,62.15
2022-11-21T03:05:53.324Z,63.30
2022-11-21T03:08:20.441Z,67.22
2022-11-21T03:10:47.646Z,63.10
2022-11-21T03:13:14.848Z,65.90
2022-11-21T03:15:42.046Z,66.25
2022-11-21T03:18:09.121Z,64.28
2022-11-21T03:20:36.359Z,64.20
2022-11-21T03:23:03.882Z,62.00
2022-11-21T03:25:31.603Z,66.15
2022-11-21T03:27:58.890Z,64.38
2022-11-21T03:30:27.901Z,68.88
2022-11-21T03:32:58.703Z,63.58
2022-11-21T03:35:26.010Z,64.57
2022-11-21T03:37:53.551Z,63.08
2022-11-21T03:40:20.752Z,68.63
2022-11-21T03:42:47.862Z,73.93
2022-11-21T03:45:15.034Z,62.13
2022-11-21T03:47:42.451Z,63.53
2022-11-21T03:50:10.883Z,70.07
2022-11-21T03:52:37.919Z,66.38
2022-11-21T03:55:05.480Z,68.75
2022-11-21T03:57:32.554Z,67.55
2022-11-21T03:59:59.733Z,71.57
2022-11-21T04:02:27.049Z,70.88
2022-11-21T04:04:54.194Z,73.15
2022-11-21T04:07:21.411Z,82.18
2022-11-21T04:09:48.592Z,75.32
2022-11-21T04:12:15.722Z,75.85
2022-11-21T04:14:42.969Z,78.68
2022-11-21T04:17:10.158Z,73.00
2022-11-21T04:19:37.240Z,71.78
2022-11-21T04:22:04.348Z,76.40
2022-11-21T04:24:31.534Z,71.75
2022-11-21T04:26:58.640Z,81.30
2022-11-21T04:29:25.726Z,78.90
2022-11-21T04:31:52.836Z,86.75
2022-11-21T04:34:19.921Z,75.55
2022-11-21T04:36:47.066Z,71.68
2022-11-21T04:39:14.281Z,69.18
2022-11-21T04:41:41.438Z,64.43
2022-11-21T04:44:08.638Z,68.03
2022-11-21T04:46:35.845Z,69.03
2022-11-21T04:49:03.058Z,64.82
2022-11-21T04:51:30.112Z,71.22
2022-11-21T04:53:57.200Z,61.78
2022-11-21T04:56:24.254Z,66.85
2022-11-21T04:58:53.245Z,64.85
2022-11-21T05:01:20.407Z,61.88
2022-11-21T05:03:47.609Z,59.83
2022-11-21T05:06:15.890Z,62.78
2022-11-21T05:08:45.612Z,63.10
2022-11-21T05:11:33.598Z,66.38
2022-11-21T05:14:00.799Z,68.57
2022-11-21T05:16:28.121Z,64.13
2022-11-21T05:18:55.230Z,69.13
2022-11-21T05:21:22.488Z,62.90
2022-11-21T05:23:49.688Z,69.85
2022-11-21T05:26:16.895Z,72.47
2022-11-21T05:28:44.129Z,68.55
2022-11-21T05:31:11.271Z,74.57
2022-11-21T05:33:38.438Z,63.88
2022-11-21T05:36:05.751Z,76.00
2022-11-21T05:38:32.832Z,69.72
2022-11-21T05:40:59.943Z,80.25
2022-11-21T05:43:45.777Z,82.78
2022-11-21T05:46:21.791Z,76.68
2022-11-21T05:48:50.449Z,85.30
2022-11-21T05:51:18.519Z,78.28
2022-11-21T05:53:46.238Z,77.03
2022-11-21T05:56:18.519Z,76.85
2022-11-21T05:58:46.340Z,75.53
2022-11-21T06:01:15.385Z,74.82
2022-11-21T06:03:43.421Z,74.18
2022-11-21T06:06:13.050Z,67.18
2022-11-21T06:08:45.650Z,62.60
2022-11-21T06:11:15.638Z,64.43
2022-11-21T06:16:15.641Z,62.92
2022-11-21T06:18:45.173Z,65.25
2022-11-21T06:21:18.073Z,64.20
2022-11-21T06:23:45.869Z,58.05
2022-11-21T06:26:15.393Z,68.47
2022-11-21T06:28:43.782Z,59.22
2022-11-21T06:31:16.448Z,62.97
2022-11-21T06:33:44.659Z,58.78
2022-11-21T06:36:14.467Z,59.22
2022-11-21T06:38:42.001Z,58.20
2022-11-21T06:41:23.819Z,64.70
2022-11-21T06:43:50.928Z,60.30
2022-11-21T06:46:18.280Z,61.33
2022-11-21T06:48:45.684Z,61.88
2022-11-21T06:51:22.353Z,60.83
2022-11-21T06:53:57.424Z,58.75
2022-11-21T06:56:29.245Z,58.22
2022-11-21T06:58:57.159Z,57.25
2022-11-21T07:01:24.508Z,60.17
2022-11-21T07:03:52.053Z,58.78
2022-11-21T07:06:19.280Z,60.75
2022-11-21T07:08:46.368Z,61.42
2022-11-21T07:11:30.315Z,57.85
2022-11-21T07:13:57.586Z,61.67
2022-11-21T07:16:26.629Z,62.05
2022-11-21T07:18:53.810Z,60.10
2022-11-21T07:21:20.922Z,61.95
2022-11-21T07:23:48.892Z,65.38
2022-11-21T07:26:16.080Z,66.47
2022-11-21T07:28:43.542Z,64.63
2022-11-21T07:31:13.725Z,61.33
2022-11-21T07:33:43.807Z,61.42
2022-11-21T07:36:12.313Z,63.10
2022-11-21T07:38:41.305Z,60.80
2022-11-21T07:41:09.449Z,64.82
2022-11-21T07:43:36.702Z,58.17
2022-11-21T07:46:03.895Z,65.88
2022-11-21T07:48:31.224Z,60.72
2022-11-21T07:50:58.494Z,64.22
2022-11-21T07:53:25.735Z,65.03
2022-11-21T07:55:53.340Z,65.75
2022-11-21T07:58:20.435Z,71.50
2022-11-21T08:00:47.747Z,67.93
2022-11-21T08:03:15.029Z,62.10
2022-11-21T08:05:44.084Z,59.80
2022-11-21T08:08:12.543Z,64.97
2022-11-21T08:10:42.540Z,73.72
2022-11-21T08:13:09.829Z,68.45
2022-11-21T08:15:38.311Z,70.35
2022-11-21T08:18:16.453Z,65.93
2022-11-21T08:20:43.651Z,69.72
2022-11-21T08:23:11.145Z,69.75
2022-11-21T08:25:42.231Z,67.97
2022-11-21T08:28:11.569Z,67.00
2022-11-21T08:30:40.126Z,74.57
2022-11-21T08:33:07.897Z,69.97
2022-11-21T08:35:38.302Z,69.00
2022-11-21T08:38:06.031Z,65.25
2022-11-21T08:40:34.489Z,64.47
2022-11-21T08:43:03.213Z,67.60
2022-11-21T08:45:31.494Z,71.93
2022-11-21T08:47:58.663Z,63.92
2022-11-21T08:50:26.651Z,69.28
2022-11-21T08:52:54.252Z,66.32
2022-11-21T08:55:23.283Z,67.32
2022-11-21T08:57:50.403Z,68.00
2022-11-21T09:00:17.641Z,76.30
2022-11-21T09:02:45.092Z,72.75
2022-11-21T09:05:12.231Z,65.32
2022-11-21T09:07:39.408Z,72.22
2022-11-21T09:10:07.276Z,78.20
2022-11-21T09:12:34.370Z,77.95
2022-11-21T09:15:20.246Z,75.72
2022-11-21T09:18:05.411Z,77.57
2022-11-21T09:20:36.843Z,68.65
2022-11-21T09:23:11.568Z,71.28
2022-11-21T09:25:39.251Z,79.85
2022-11-21T09:28:09.097Z,75.03
2022-11-21T09:30:37.214Z,78.13
2022-11-21T09:33:10.039Z,76.35
2022-11-21T09:35:37.365Z,74.40
2022-11-21T09:38:05.018Z,82.85
2022-11-21T09:40:33.570Z,76.93
2022-11-21T09:43:32.280Z,76.53
2022-11-21T09:46:11.006Z,83.70
2022-11-21T09:48:55.342Z,71.55
2022-11-21T09:51:23.823Z,81.93
2022-11-21T09:53:57.965Z,70.75
2022-11-21T09:56:27.769Z,75.97
2022-11-21T09:59:28.000Z,74.72
2022-11-21T10:01:55.452Z,79.80
2022-11-21T10:04:22.679Z,76.00
2022-11-21T10:07:07.735Z,75.65
2022-11-21T10:10:12.647Z,74.20
2022-11-21T10:13:24.718Z,79.40
2022-11-21T10:16:13.413Z,77.97
2022-11-21T10:19:10.521Z,82.13
2022-11-21T10:21:46.384Z,83.75
2022-11-21T10:24:19.361Z,86.47
2022-11-21T10:27:00.440Z,89.85
2022-11-21T10:29:39.253Z,90.00
2022-11-21T10:32:27.690Z,85.72
2022-11-21T10:35:18.050Z,91.80
2022-11-21T10:38:01.249Z,94.18
2022-11-21T10:40:45.891Z,100.63
2022-11-21T10:43:37.243Z,91.80
2022-11-21T10:46:04.452Z,91.30
2022-11-21T10:48:31.721Z,88.55
2022-11-21T10:51:14.118Z,98.13
2022-11-21T10:54:04.655Z,97.05
2022-11-21T10:56:36.610Z,86.47
2022-11-21T10:59:22.611Z,106.38
2022-11-21T11:01:59.649Z,95.82
2022-11-21T11:04:43.995Z,99.70
2022-11-21T11:07:28.874Z,104.05
2022-11-21T11:10:26.754Z,93.70
2022-11-21T11:16:10.009Z,100.88
2022-11-21T11:18:48.651Z,97.60
2022-11-21T11:21:21.922Z,97.93
2022-11-21T11:23:54.029Z,88.57
2022-11-21T11:26:28.085Z,94.90
2022-11-21T11:29:18.065Z,88.22
2022-11-21T11:31:50.604Z,92.30
2022-11-21T11:34:18.451Z,87.15
2022-11-21T11:37:11.932Z,86.93
2022-11-21T11:39:42.204Z,89.75
2022-11-21T11:42:47.146Z,85.70
2022-11-21T11:45:32.959Z,84.30
2022-11-21T11:48:12.759Z,93.28
2022-11-21T11:50:49.422Z,81.18
2022-11-21T11:53:30.731Z,81.88
2022-11-21T11:56:16.461Z,78.93
2022-11-21T11:58:43.633Z,81.70
2022-11-21T12:01:13.422Z,83.72
2022-11-21T12:04:10.621Z,83.45
2022-11-21T12:10:06.765Z,88.80
2022-11-21T12:12:45.861Z,82.70
2022-11-21T12:15:38.560Z,80.55
2022-11-21T12:18:55.005Z,83.75
2022-11-21T12:21:23.817Z,87.53
2022-11-21T12:23:59.129Z,85.00
2022-11-21T12:26:56.808Z,85.82
2022-11-21T12:29:26.869Z,88.20
2022-11-21T12:32:08.931Z,82.75
2022-11-21T12:35:12.771Z,86.45
2022-11-21T12:38:15.163Z,83.10
2022-11-21T12:41:00.177Z,85.85
2022-11-21T12:44:11.748Z,78.60
2022-11-21T12:46:53.725Z,77.57
2022-11-21T12:50:02.988Z,80.80
2022-11-21T12:53:00.320Z,80.90
2022-11-21T12:55:35.041Z,84.35
2022-11-21T12:58:17.917Z,87.20
2022-11-21T13:01:06.903Z,86.65
2022-11-21T13:03:57.099Z,90.53
2022-11-21T13:08:55.449Z,83.90
2022-11-21T13:12:00.318Z,88.43
2022-11-21T13:14:40.403Z,90.53
2022-11-21T13:19:59.013Z,86.20
2022-11-21T13:22:56.551Z,86.95
2022-11-21T13:25:33.069Z,87.35
2022-11-21T13:28:18.958Z,88.75
2022-11-21T13:30:54.294Z,84.88
2022-11-21T13:33:36.424Z,95.10
2022-11-21T13:36:08.094Z,91.97
2022-11-21T13:38:56.375Z,89.20
2022-11-21T13:41:54.341Z,92.20
2022-11-21T13:44:33.595Z,86.85
2022-11-21T13:47:10.009Z,87.17
2022-11-21T13:50:04.676Z,86.68
2022-11-21T13:52:49.699Z,84.45
2022-11-21T13:55:36.013Z,85.65
2022-11-21T13:58:24.605Z,90.40
2022-11-21T14:01:13.234Z,98.15
2022-11-21T14:03:59.050Z,97.40
2022-11-21T14:06:38.053Z,90.35
2022-11-21T14:09:14.163Z,90.20
2022-11-21T14:11:48.376Z,87.40
2022-11-21T14:14:33.778Z,94.75
2022-11-21T14:17:39.883Z,93.93
2022-11-21T14:20:23.763Z,90.53
2022-11-21T14:23:20.575Z,92.38
2022-11-21T14:25:57.818Z,86.70
2022-11-21T14:28:27.173Z,88.47
2022-11-21T14:31:00.049Z,92.75
2022-11-21T14:33:47.778Z,91.43
2022-11-21T14:36:30.134Z,90.03
2022-11-21T14:39:36.607Z,87.20
2022-11-21T14:41:57.135Z,97.78
2022-11-21T14:44:24.896Z,105.63
2022-11-21T14:47:06.511Z,99.28
2022-11-21T14:49:33.699Z,103.90
2022-11-21T14:52:18.029Z,98.38
2022-11-21T14:55:28.530Z,104.07
2022-11-21T14:57:45.141Z,94.75
2022-11-21T15:00:43.290Z,102.60
2022-11-21T15:03:04.395Z,100.50
2022-11-21T15:06:00.896Z,106.28
2022-11-21T15:11:14.244Z,110.68
2022-11-21T15:14:12.127Z,110.17
2022-11-21T15:16:31.385Z,96.30
2022-11-21T15:18:58.686Z,106.15
2022-11-21T15:21:25.929Z,108.97
2022-11-21T15:23:55.797Z,106.93
2022-11-21T15:26:31.460Z,110.53
2022-11-21T15:29:00.220Z,110.25
2022-11-21T15:31:28.270Z,102.57
2022-11-21T15:34:34.745Z,100.20
2022-11-21T15:37:24.220Z,109.70
2022-11-21T15:39:53.571Z,104.25
2022-11-21T15:42:32.704Z,105.53
2022-11-21T15:45:02.592Z,93.35
2022-11-21T15:47:29.909Z,103.45
2022-11-21T15:49:57.176Z,104.85
2022-11-21T15:52:24.409Z,108.75
2022-11-21T15:54:51.653Z,107.22
2022-11-21T15:59:47.013Z,90.18
2022-11-21T16:02:14.793Z,104.72
2022-11-21T16:04:42.812Z,109.88
2022-11-21T16:07:10.013Z,115.82
2022-11-21T16:09:38.048Z,115.18
2022-11-21T16:12:05.420Z,111.38
2022-11-21T16:14:32.574Z,110.68
2022-11-21T16:16:59.699Z,106.28
2022-11-21T16:19:27.140Z,108.75
2022-11-21T16:21:54.508Z,107.75
2022-11-21T16:24:21.763Z,117.15
2022-11-21T16:26:53.569Z,106.65
2022-11-21T16:29:20.957Z,121.30
2022-11-21T16:31:50.526Z,102.07
2022-11-21T16:34:20.846Z,122.55
2022-11-21T16:36:48.000Z,119.95
2022-11-21T16:39:18.252Z,120.65
2022-11-21T16:41:46.940Z,125.55
2022-11-21T16:44:15.928Z,127.65
2022-11-21T16:46:48.340Z,127.22
2022-11-21T16:49:15.559Z,134.45
2022-11-21T16:51:42.686Z,127.13
2022-11-21T16:54:09.920Z,124.07
2022-11-21T16:56:37.294Z,135.15
2022-11-21T16:59:04.642Z,142.65
2022-11-21T17:01:32.025Z,127.70
2022-11-21T17:03:59.501Z,158.88
2022-11-21T17:06:30.207Z,142.13
2022-11-21T17:09:00.261Z,149.98
2022-11-21T17:11:29.575Z,148.93
2022-11-21T17:14:01.322Z,136.60
2022-11-21T17:16:29.050Z,143.10
2022-11-21T17:18:58.298Z,155.40
2022-11-21T17:21:26.930Z,157.13
2022-11-21T17:23:54.675Z,145.15
2022-11-21T17:26:24.691Z,170.88
2022-11-21T17:28:57.459Z,174.18
2022-11-21T17:31:25.562Z,179.90
2022-11-21T17:33:55.003Z,160.65
2022-11-21T17:36:24.825Z,176.23
2022-11-21T17:38:53.132Z,190.43
2022-11-21T17:41:22.512Z,165.93
2022-11-21T17:43:53.443Z,206.82
2022-11-21T17:46:20.880Z,269.08
2022-11-21T17:48:55.023Z,237.35
2022-11-21T17:51:34.714Z,222.35
2022-11-21T17:54:02.809Z,195.00
2022-11-21T17:56:32.883Z,183.13
2022-11-21T18:01:27.482Z,209.05
2022-11-21T18:04:03.389Z,210.07
2022-11-21T18:06:36.259Z,224.18
2022-11-21T18:09:05.581Z,227.10
2022-11-21T18:11:39.569Z,192.27
2022-11-21T18:14:09.245Z,191.25
2022-11-21T18:16:36.496Z,191.35
2022-11-21T18:19:03.813Z,195.95
2022-11-21T18:21:33.240Z,174.35
2022-11-21T18:24:00.600Z,181.15
2022-11-21T18:26:30.337Z,181.18
2022-11-21T18:31:47.900Z,151.23
2022-11-21T18:34:15.053Z,184.95
2022-11-21T18:36:42.557Z,251.93
2022-11-21T18:39:14.772Z,199.35
2022-11-21T18:41:43.499Z,191.07
2022-11-21T18:44:14.592Z,199.32
2022-11-21T18:46:44.533Z,187.60
2022-11-21T18:49:11.716Z,215.70
2022-11-21T18:51:38.839Z,184.70
2022-11-21T18:54:08.820Z,191.35
2022-11-21T18:56:37.846Z,185.70
2022-11-21T18:59:06.760Z,170.90
2022-11-21T19:01:35.681Z,141.77
2022-11-21T19:04:03.661Z,163.93
2022-11-21T19:06:31.052Z,146.32
2022-11-21T19:08:59.147Z,123.72
2022-11-21T19:11:29.243Z,138.35
2022-11-21T19:16:26.519Z,126.72
2022-11-21T19:19:26.395Z,120.13
2022-11-21T19:21:42.505Z,142.07
2022-11-21T19:24:14.633Z,149.02
2022-11-21T19:26:42.487Z,146.57
2022-11-21T19:29:10.407Z,120.40
2022-11-21T19:31:44.251Z,133.70
2022-11-21T19:34:14.248Z,122.07
2022-11-21T19:36:41.620Z,120.15
2022-11-21T19:39:09.281Z,119.20
2022-11-21T19:41:36.900Z,116.25
2022-11-21T19:44:04.571Z,124.40
2022-11-21T19:46:34.868Z,104.50
2022-11-21T19:49:02.729Z,106.05
2022-11-21T19:51:41.418Z,109.28
2022-11-21T19:54:11.285Z,121.57
2022-11-21T19:56:38.552Z,116.93
2022-11-21T19:59:05.936Z,116.70
2022-11-21T20:01:34.929Z,102.97
2022-11-21T20:04:04.877Z,110.50
2022-11-21T20:06:41.782Z,103.35
2022-11-21T20:09:11.724Z,105.28
2022-11-21T20:11:41.046Z,95.82
2022-11-21T20:14:08.669Z,101.20
2022-11-21T20:16:38.742Z,103.57
2022-11-21T20:21:34.790Z,96.40
2022-11-21T20:24:02.486Z,95.57
2022-11-21T20:26:30.201Z,93.60
2022-11-21T20:28:57.560Z,93.82
2022-11-21T20:31:28.081Z,92.70
2022-11-21T20:34:00.984Z,94.63
2022-11-21T20:36:30.420Z,95.80
2022-11-21T20:39:01.651Z,96.57
2022-11-21T20:41:31.643Z,99.93
2022-11-21T20:46:52.449Z,104.55
2022-11-21T20:49:19.625Z,96.43
2022-11-21T20:53:36.615Z,104.15
2022-11-21T20:54:35.246Z,111.60
2022-11-21T20:57:02.650Z,117.40
2022-11-21T20:59:30.139Z,123.53
2022-11-21T21:01:57.670Z,129.40
2022-11-21T21:04:24.924Z,145.27
2022-11-21T21:06:52.218Z,136.43
2022-11-21T21:09:19.524Z,132.88
2022-11-21T21:11:54.220Z,159.45
2022-11-21T21:14:22.509Z,153.48
2022-11-21T21:16:50.517Z,155.45
2022-11-21T21:19:18.730Z,148.40
2022-11-21T21:21:46.336Z,145.75
2022-11-21T21:24:14.533Z,169.90
2022-11-21T21:26:45.461Z,144.90
2022-11-21T21:29:16.018Z,140.00
2022-11-21T21:31:49.883Z,136.68
2022-11-21T21:34:18.411Z,131.60
2022-11-21T21:36:45.650Z,130.07
2022-11-21T21:39:13.124Z,129.02
2022-11-21T21:41:44.741Z,122.15
2022-11-21T21:44:12.797Z,132.93
2022-11-21T21:46:39.892Z,140.60
2022-11-21T21:49:07.050Z,136.15
2022-11-21T21:51:36.180Z,126.88
2022-11-21T21:54:03.601Z,121.85
2022-11-21T21:56:30.782Z,133.73
2022-11-21T21:58:58.653Z,146.50
2022-11-21T22:01:31.399Z,115.38
2022-11-21T22:04:01.397Z,128.70
2022-11-21T22:06:29.561Z,123.63
2022-11-21T22:08:56.979Z,130.77
2022-11-21T22:11:29.594Z,131.50
2022-11-21T22:14:05.801Z,131.13
2022-11-21T22:16:33.457Z,119.30
2022-11-21T22:19:00.631Z,116.00
2022-11-21T22:21:32.617Z,125.75
2022-11-21T22:26:52.410Z,124.30
2022-11-21T22:29:19.657Z,141.15
2022-11-21T22:31:46.929Z,128.18
2022-11-21T22:34:14.652Z,122.45
2022-11-21T22:36:42.322Z,142.80
2022-11-21T22:39:09.828Z,125.13
2022-11-21T22:41:37.031Z,142.25
2022-11-21T22:44:04.592Z,117.43
2022-11-21T22:46:31.872Z,110.95
2022-11-21T22:48:59.325Z,102.32
2022-11-21T22:51:29.923Z,95.93
2022-11-21T22:53:58.283Z,83.97
2022-11-21T22:56:27.289Z,76.25
2022-11-21T22:58:54.686Z,71.63
2022-11-21T23:01:24.724Z,73.30
2022-11-21T23:06:21.982Z,77.40
2022-11-21T23:08:49.162Z,85.13
2022-11-21T23:11:19.547Z,78.20
2022-11-21T23:13:47.994Z,79.35
2022-11-21T23:16:16.303Z,82.78
2022-11-21T23:18:44.240Z,82.28
2022-11-21T23:21:12.651Z,82.03
2022-11-21T23:23:40.209Z,78.40
2022-11-21T23:26:07.722Z,92.80
2022-11-21T23:28:35.041Z,85.35
2022-11-21T23:31:02.401Z,91.53
2022-11-21T23:33:29.573Z,92.82
2022-11-21T23:35:56.769Z,95.05
2022-11-21T23:38:23.953Z,93.90
2022-11-21T23:40:51.321Z,92.53
2022-11-21T23:43:19.202Z,91.25
2022-11-21T23:45:50.840Z,98.03
2022-11-21T23:48:18.281Z,89.45
2022-11-21T23:50:47.341Z,83.57
2022-11-21T23:53:14.581Z,87.45
2022-11-21T23:55:43.369Z,83.63
2022-11-21T23:58:11.194Z,82.30
